Flight Track Log - Related Links

Times and Time Zones

All times are in EDT time to prevent confusion due to time zone crossing. See the SWA1046 flight status page for this flight to view local times or setup timezone preferences in your user account.

Time Position Orientation Groundspeed Altitude Reporting Facility
EDT Latitude Longitude Course Direction KTS MPH feet Rate Location/Type
Wed 11:14:01 AM 28.3667 -81.3167 196° South 207 238 2,600  Level Orlando TRACON
Wed 11:15:01 AM 28.3333 -81.3833 240° Southwest 213 245 5,600 2,166 Climbing Orlando TRACON
Wed 11:17:26 AM 28.3206 -81.5697 266° West 270 311 10,000 1,785 Climbing Jacksonville Center
Wed 11:18:26 AM 28.3131 -81.6714 265° West 300 345 11,700 2,550 Climbing Jacksonville Center
Wed 11:19:26 AM 28.3058 -81.7750 265° West 319 367 15,100 3,300 Climbing Jacksonville Center
Wed 11:20:26 AM 28.3003 -81.8836 267° West 343 395 18,300 3,150 Climbing Jacksonville Center
Wed 11:21:26 AM 28.2908 -81.9969 265° West 355 409 21,400 2,650 Climbing Jacksonville Center
Wed 11:22:26 AM 28.3103 -82.1050 282° West 355 409 23,600 2,200 Climbing Jacksonville Center
Wed 11:23:26 AM 28.3611 -82.2156 298° West 368 423 25,800 2,050 Climbing Jacksonville Center
Wed 11:24:26 AM 28.4158 -82.3308 298° West 386 444 27,700 1,850 Climbing Jacksonville Center
Wed 11:25:26 AM 28.4725 -82.4439 300° West 398 458 29,500 1,150 Climbing Jacksonville Center
Wed 11:26:26 AM 28.5333 -82.5594 301° West 420 483 30,000 1,150 Climbing Jacksonville Center
Wed 11:27:26 AM 28.6275 -82.6489 320° Northwest 427 491 31,800 1,900 Climbing Jacksonville Center
Wed 11:28:26 AM 28.7236 -82.7292 324° Northwest 427 491 33,800 1,400 Climbing Jacksonville Center
Wed 11:29:26 AM 28.8239 -82.8050 326° Northwest 432 497 34,600 1,250 Climbing Jacksonville Center
Wed 11:30:26 AM 28.9200 -82.8831 325° Northwest 432 497 36,300 1,400 Climbing Jacksonville Center
Wed 11:31:26 AM 29.0181 -82.9614 325° Northwest 432 497 37,400 850 Climbing Jacksonville Center
Wed 11:32:26 AM 29.1183 -83.0400 326° Northwest 432 497 38,000 300 Climbing Jacksonville Center
Wed 11:33:26 AM 29.2183 -83.1186 326° Northwest 432 497 38,000  Level Jacksonville Center
Wed 11:34:26 AM 29.3142 -83.1997 324° Northwest 432 497 38,000  Level Jacksonville Center
Wed 11:35:26 AM 29.4119 -83.2789 325° Northwest 432 497 38,000  Level Jacksonville Center
Wed 11:36:26 AM 29.5203 -83.3650 325° Northwest 432 497 38,000  Level Jacksonville Center
Wed 11:37:26 AM 29.6181 -83.4419 326° Northwest 432 497 38,000  Level Jacksonville Center
Wed 11:38:26 AM 29.7158 -83.5239 324° Northwest 432 497 38,000  Level Jacksonville Center
Wed 11:39:26 AM 29.8114 -83.6011 325° Northwest 432 497 38,000  Level Jacksonville Center
Wed 11:40:26 AM 29.9092 -83.6786 326° Northwest 432 497 38,000  Level Jacksonville Center
Wed 11:41:26 AM 30.0028 -83.7511 326° Northwest 432 497 38,000  Level Jacksonville Center
Wed 11:42:26 AM 30.0939 -83.8289 324° Northwest 426 490 38,000  Level Jacksonville Center
Wed 11:43:26 AM 30.1853 -83.9042 325° Northwest 416 479 38,000  Level Jacksonville Center
Wed 11:44:26 AM 30.2786 -83.9797 325° Northwest 411 473 38,000  Level Jacksonville Center
Wed 11:45:26 AM 30.3697 -84.0556 324° Northwest 406 467 38,000  Level Jacksonville Center
Wed 11:46:26 AM 30.4608 -84.1289 325° Northwest 406 467 38,000  Level Jacksonville Center
Wed 11:47:26 AM 30.5439 -84.1975 325° Northwest 406 467 38,000  Level Jacksonville Center
Wed 11:48:26 AM 30.6389 -84.2783 324° Northwest 399 459 38,000  Level Jacksonville Center
Wed 11:49:26 AM 30.7278 -84.3572 323° Northwest 404 465 38,000  Level Jacksonville Center
Wed 11:50:26 AM 30.8208 -84.4311 326° Northwest 404 465 38,000  Level Jacksonville Center
Wed 11:51:26 AM 30.9097 -84.5075 324° Northwest 404 465 38,000  Level Jacksonville Center
Wed 11:52:26 AM 31.0008 -84.5819 325° Northwest 404 465 38,000  Level Jacksonville Center
Wed 11:54:21 AM 31.1667 -84.7208 324° Northwest 408 470 38,000  Level Atlanta Center
Wed 11:55:21 AM 31.2539 -84.7942 324° Northwest 402 463 38,000  Level Atlanta Center
Wed 11:56:21 AM 31.3431 -84.8703 324° Northwest 402 463 38,000  Level Atlanta Center
Wed 11:57:21 AM 31.4344 -84.9467 325° Northwest 402 463 38,000  Level Atlanta Center
Wed 11:58:21 AM 31.5256 -85.0256 324° Northwest 402 463 38,000 50 Level Atlanta Center
Wed 11:59:21 AM 31.6147 -85.1044 323° Northwest 409 471 38,100 700 Climbing Atlanta Center
Wed 12:00:21 PM 31.7100 -85.1789 326° Northwest 409 471 39,400 950 Climbing Atlanta Center
Wed 12:01:21 PM 31.8011 -85.2558 324° Northwest 404 465 40,000 300 Climbing Atlanta Center
Wed 12:02:21 PM 31.8942 -85.3353 324° Northwest 404 465 40,000  Level Atlanta Center
Wed 12:03:21 PM 31.9872 -85.4175 323° Northwest 404 465 40,000  Level Atlanta Center
Wed 12:04:21 PM 32.0908 -85.5025 325° Northwest 409 471 40,000  Level Atlanta Center
Wed 12:05:21 PM 32.1858 -85.5850 324° Northwest 409 471 40,000  Level Atlanta Center
Wed 12:06:21 PM 32.2786 -85.6653 324° Northwest 409 471 40,000  Level Atlanta Center
Wed 12:07:21 PM 32.3756 -85.7481 324° Northwest 415 478 40,000  Level Atlanta Center
Wed 12:08:21 PM 32.4661 -85.8336 321° Northwest 420 483 40,000  Level Atlanta Center
Wed 12:09:21 PM 32.5631 -85.9144 325° Northwest 420 483 40,000  Level Atlanta Center
Wed 12:10:21 PM 32.6578 -85.9953 324° Northwest 420 483 40,000  Level Atlanta Center
Wed 12:11:21 PM 32.7525 -86.0789 323° Northwest 425 489 40,000  Level Atlanta Center
Wed 12:12:21 PM 32.8450 -86.1603 324° Northwest 430 495 40,000  Level Atlanta Center
Wed 12:13:21 PM 32.9375 -86.2417 324° Northwest 430 495 40,000  Level Atlanta Center
Wed 12:14:21 PM 33.0300 -86.3208 324° Northwest 424 488 40,000  Level Atlanta Center
Wed 12:15:21 PM 33.1222 -86.4075 322° Northwest 424 488 40,000  Level Atlanta Center
Wed 12:16:21 PM 33.2167 -86.4919 323° Northwest 429 494 40,000  Level Atlanta Center
Wed 12:17:21 PM 33.3042 -86.6014 314° West 450 518 40,000  Level Atlanta Center
Wed 12:18:21 PM 33.3908 -86.6464 337° Northwest 385 443 40,000  Level Atlanta Center
Wed 12:19:21 PM 33.4853 -86.7314 323° Northwest 407 468 40,000  Level Atlanta Center
Wed 12:20:21 PM 33.5792 -86.8164 323° Northwest 418 481 40,000  Level Atlanta Center
Wed 12:21:56 PM 33.7336 -86.9478 325° Northwest 458 527 40,000  Level Memphis Center
Wed 12:22:56 PM 33.8319 -87.0339 324° Northwest 434 499 40,000  Level Memphis Center
Wed 12:23:56 PM 33.9297 -87.1103 327° Northwest 424 488 40,000  Level Memphis Center
Wed 12:25:00 PM 34.0313 -87.1783 326° Northwest  Level FlightAware Approximate
Wed 12:25:56 PM 34.1383 -87.2681 326° Northwest 424 488 40,000  Level Memphis Center
Wed 12:26:56 PM 34.2364 -87.3447 327° Northwest 419 482 40,000  Level Memphis Center
Wed 12:27:56 PM 34.3319 -87.4219 326° Northwest 419 482 40,000  Level Memphis Center
Wed 12:28:56 PM 34.4342 -87.5039 327° Northwest 425 489 40,000  Level Memphis Center
Wed 12:29:56 PM 34.5211 -87.5742 326° Northwest 425 489 40,000  Level Memphis Center
Wed 12:30:56 PM 34.6189 -87.6517 327° Northwest 425 489 40,000  Level Memphis Center
Wed 12:31:56 PM 34.7167 -87.7319 326° Northwest 429 494 40,000  Level Memphis Center
Wed 12:32:56 PM 34.8164 -87.8097 327° Northwest 429 494 40,000  Level Memphis Center
Wed 12:33:56 PM 34.9117 -87.8881 326° Northwest 423 487 40,000  Level Memphis Center
Wed 12:34:56 PM 35.0092 -87.9664 327° Northwest 423 487 40,000  Level Memphis Center
Wed 12:35:56 PM 35.1047 -88.0447 326° Northwest 423 487 40,000  Level Memphis Center
Wed 12:36:56 PM 35.2083 -88.1333 325° Northwest 423 487 40,000  Level Memphis Center
Wed 12:37:56 PM 35.3058 -88.2147 326° Northwest 428 493 40,000  Level Memphis Center
Wed 12:38:56 PM 35.4031 -88.2911 327° Northwest 428 493 40,000  Level Memphis Center
Wed 12:39:56 PM 35.4936 -88.3475 333° Northwest 419 482 40,000  Level Memphis Center
Wed 12:40:56 PM 35.5928 -88.4167 330° Northwest 409 471 40,000  Level Memphis Center
Wed 12:41:56 PM 35.6942 -88.4883 330° Northwest 409 471 40,000  Level Memphis Center
Wed 12:42:56 PM 35.7972 -88.5553 332° Northwest 409 471 40,000  Level Memphis Center
Wed 12:43:56 PM 35.8964 -88.6272 330° Northwest 409 471 40,000  Level Memphis Center
Wed 12:44:56 PM 35.9953 -88.6969 330° Northwest 409 471 40,000  Level Memphis Center
Wed 12:45:56 PM 36.0961 -88.7669 331° Northwest 409 471 40,000  Level Memphis Center
Wed 12:46:56 PM 36.1950 -88.8344 331° Northwest 409 471 40,000  Level Memphis Center
Wed 12:47:56 PM 36.2961 -88.9047 331° Northwest 409 471 40,000 -500 Level Memphis Center
Wed 12:48:56 PM 36.3947 -88.9750 330° Northwest 409 471 39,000 -950 Descending Memphis Center
Wed 12:49:56 PM 36.4956 -89.0456 331° Northwest 409 471 38,100 -1,200 Descending Memphis Center
Wed 12:50:56 PM 36.5942 -89.1164 330° Northwest 409 471 36,600 -2,250 Descending Memphis Center
Wed 12:51:56 PM 36.7033 -89.1975 329° Northwest 409 471 33,600 -2,300 Descending Memphis Center
Wed 12:52:56 PM 36.7958 -89.2636 330° Northwest 402 463 32,000 -800 Descending Memphis Center
Wed 12:53:56 PM 36.8881 -89.3297 330° Northwest 392 451 32,000 -481 Level Memphis Center
Wed 12:55:38 PM 37.0356 -89.4347 330° Northwest 382 440 30,700 -1,354 Descending Kansas City Center
Wed 12:56:40 PM 37.1286 -89.5000 331° Northwest 383 441 28,300 -2,226 Descending Kansas City Center
Wed 12:57:42 PM 37.2203 -89.5669 330° Northwest 381 438 26,100 -1,113 Descending Kansas City Center
Wed 12:58:44 PM 37.3153 -89.6233 335° Northwest 380 437 26,000 -48 Descending Kansas City Center
Wed 12:59:46 PM 37.4353 -89.6858 338° Northwest 386 444 26,000 -629 Level Kansas City Center
Wed 01:00:48 PM 37.5325 -89.7397 336° Northwest 383 441 24,700 -1,645 Descending Kansas City Center
Wed 01:01:50 PM 37.6317 -89.7947 336° Northwest 378 435 22,600 -2,032 Descending Kansas City Center
Wed 01:02:52 PM 37.7269 -89.8478 336° Northwest 376 433 20,500 -1,984 Descending Kansas City Center
Wed 01:03:54 PM 37.8183 -89.8978 337° Northwest 363 418 18,500 -2,129 Descending Kansas City Center
Wed 01:04:56 PM 37.9236 -89.9522 338° Northwest 359 413 16,100 -2,129 Descending Kansas City Center
Wed 01:05:58 PM 38.0125 -90.0019 336° Northwest 350 403 14,100 -1,984 Descending Kansas City Center
Wed 01:07:00 PM 38.1028 -90.0550 335° Northwest 339 390 12,000 -1,500 Descending Kansas City Center
Wed 01:08:02 PM 38.1747 -90.1183 325° Northwest 321 369 11,000 -1,113 Descending Kansas City Center
Wed 01:09:04 PM 38.2394 -90.1750 325° Northwest 293 337 9,700 -1,355 Descending Kansas City Center
Wed 01:10:06 PM 38.3083 -90.2058 341° North 274 315 8,200 -919 Descending Kansas City Center
Wed 01:11:08 PM 38.3842 -90.2031 North 274 315 7,800 -1,016 Descending Kansas City Center
Wed 01:12:10 PM 38.4492 -90.1503 32° Northeast 277 319 6,100 -1,355 Descending Kansas City Center
Wed 01:13:12 PM 38.5400 -90.1461 North 275 316 5,000 -726 Descending Kansas City Center
Wed 01:14:14 PM 38.6119 -90.1450 North 269 310 4,600 -677 Descending Kansas City Center
Wed 01:15:16 PM 38.6617 -90.1836 329° Northwest 241 277 3,600 -823 Descending Kansas City Center
Wed 01:16:18 PM 38.6900 -90.2408 302° West 213 245 2,900 -919 Descending Kansas City Center
Wed 01:17:20 PM 38.7136 -90.2894 302° West 186 214 1,700 -1,113 Descending Kansas City Center
Wed 01:18:22 PM 38.7397 -90.3425 302° West 162 186 600 -1,065 Descending Kansas City Center

Login

Don't have an account? Register now (free) for customized features, flight alerts, and more!